»·PEaware :: ASA103 KSAN-KFAT

ASA103 :: KSAN-KFAT

FLIGHT INFORMATION

Flight Status: Arrived
Operator:
Alaska Airlines
More flights by this operator :: More flights under this callsign
Pilot: Andrew C. (28419)
Aircraft: BOEING 737-800
(B738)
More flights by this aircraft type
Origin: KSAN San Diego Intl-Lindbergh
United States
Destination: KFAT Fresno Yosemite Intl
United States
More flights between these airports :: More routes between these airports
Route: +PADRZ2 EHF TTE ALTTA9
File this flight plan on PilotEdge
Remarks: RMK / SIMBRIEF
Altitude:
(Current/Filed)
34,000ft
Speed:
(Current/Filed)
433kts
Departed: 10-Jun-20 06:36 PM
Arrived: 10-Jun-20 07:27 PM
Distance/Time
Traveled:
272nm/0:51
Distance/Time
To Go:
Arrived

Flight Plot

Page will automatically refresh every two minutes.

Flight plan parsing failed; only flown route is shown


Map Options




Map Legend


Flown Route
Filed Route
Departure Airport
Arrival Airport
Navaid (VOR, NDB)
Fix

Horizontal Profiles

Position Reports

Time Latitude Longitude Heading Altitude Ground
Speed
10-Jun-20 18:07 32.733344 -117.203500 270 26ft 0kts
10-Jun-20 18:08 32.733344 -117.203500 270 26ft 0kts
10-Jun-20 18:09 32.733344 -117.203500 270 26ft 0kts
10-Jun-20 18:10 32.733344 -117.203500 270 26ft 0kts
10-Jun-20 18:11 32.733344 -117.203500 270 26ft 0kts
10-Jun-20 18:13 32.733344 -117.203500 270 26ft 0kts
10-Jun-20 18:14 32.733344 -117.203500 270 26ft 0kts
10-Jun-20 18:15 32.733344 -117.203500 270 26ft 0kts
10-Jun-20 18:16 32.733344 -117.203500 270 26ft 0kts
10-Jun-20 18:17 32.733344 -117.203500 270 26ft 0kts
10-Jun-20 18:18 32.733344 -117.203500 270 26ft 0kts
10-Jun-20 18:19 32.733344 -117.203500 270 26ft 0kts
10-Jun-20 18:20 32.733344 -117.203500 270 26ft 0kts
10-Jun-20 18:21 32.733344 -117.203500 270 26ft 0kts
10-Jun-20 18:22 32.733344 -117.203500 270 26ft 0kts
10-Jun-20 18:23 32.733344 -117.203500 270 26ft 0kts
10-Jun-20 18:24 32.733344 -117.203500 270 26ft 0kts
10-Jun-20 18:25 32.733344 -117.203500 270 26ft 0kts
10-Jun-20 18:26 32.733344 -117.203449 270 26ft 2kts
10-Jun-20 18:27 32.733343 -117.202729 284 26ft 1kts
10-Jun-20 18:28 32.733194 -117.202589 343 26ft 0kts
10-Jun-20 18:28 32.733194 -117.202589 343 26ft 0kts
10-Jun-20 18:30 32.735387 -117.201632 90 26ft 14kts
10-Jun-20 18:31 32.734436 -117.197556 106 27ft 11kts
10-Jun-20 18:31 32.733543 -117.193855 107 26ft 24kts
10-Jun-20 18:33 32.731245 -117.184373 106 24ft 25kts
10-Jun-20 18:33 32.729670 -117.177875 106 24ft 22kts
10-Jun-20 18:34 32.729508 -117.176766 78 24ft 0kts
10-Jun-20 18:35 32.731086 -117.179611 284 24ft 87kts
10-Jun-20 18:36 32.744817 -117.234308 295 1785ft 228kts
10-Jun-20 18:37 32.788160 -117.298779 302 4965ft 269kts
10-Jun-20 18:38 32.834603 -117.372044 307 8423ft 287kts
10-Jun-20 18:39 32.885676 -117.451220 307 10751ft 334kts
10-Jun-20 18:40 32.943620 -117.542019 306 13742ft 352kts
10-Jun-20 18:41 33.004159 -117.635428 307 16782ft 363kts
10-Jun-20 18:42 33.069202 -117.730206 315 19480ft 377kts
10-Jun-20 18:43 33.151538 -117.813259 318 21879ft 391kts
10-Jun-20 18:44 33.235447 -117.898664 318 23973ft 404kts
10-Jun-20 18:45 33.322317 -117.985877 318 25882ft 416kts
10-Jun-20 18:46 33.412547 -118.075171 318 27637ft 426kts
10-Jun-20 18:47 33.505414 -118.166468 318 29261ft 435kts
10-Jun-20 18:48 33.607919 -118.247252 329 30810ft 444kts
10-Jun-20 18:49 33.719831 -118.313798 332 32591ft 442kts
10-Jun-20 18:50 33.833092 -118.374477 334 33953ft 443kts
10-Jun-20 18:51 33.947121 -118.431660 337 33980ft 437kts
10-Jun-20 18:52 34.066520 -118.465447 347 33981ft 443kts
10-Jun-20 18:53 34.187555 -118.487180 349 34036ft 443kts
10-Jun-20 18:54 34.310362 -118.506894 349 34081ft 444kts
10-Jun-20 18:55 34.432810 -118.525999 350 34082ft 443kts
10-Jun-20 18:56 34.555038 -118.544964 350 34082ft 443kts
10-Jun-20 18:57 34.677515 -118.563994 350 34082ft 443kts
10-Jun-20 18:58 34.799361 -118.582956 350 34119ft 442kts
10-Jun-20 18:59 34.921254 -118.601973 350 34180ft 441kts
10-Jun-20 19:00 35.033558 -118.644895 326 34183ft 422kts
10-Jun-20 19:01 35.123825 -118.729276 317 34182ft 418kts
10-Jun-20 19:02 35.212900 -118.819548 317 34032ft 405kts
10-Jun-20 19:03 35.300413 -118.908584 317 31557ft 405kts
10-Jun-20 19:04 35.387781 -118.997733 317 28785ft 414kts
10-Jun-20 19:05 35.477909 -119.076740 340 25768ft 392kts
10-Jun-20 19:06 35.584931 -119.076998 4 23662ft 381kts
10-Jun-20 19:07 35.687989 -119.060667 5 21952ft 369kts
10-Jun-20 19:08 35.788117 -119.043205 6 20263ft 358kts
10-Jun-20 19:09 35.885348 -119.026781 0 18607ft 347kts
10-Jun-20 19:10 35.977429 -119.051390 337 16948ft 336kts
10-Jun-20 19:11 36.063943 -119.092570 337 15296ft 330kts
10-Jun-20 19:12 36.149790 -119.133727 337 12294ft 360kts
10-Jun-20 19:13 36.239422 -119.177445 338 9818ft 313kts
10-Jun-20 19:14 36.316247 -119.213526 339 8514ft 289kts
10-Jun-20 19:15 36.391322 -119.248654 339 7093ft 287kts
10-Jun-20 19:16 36.464663 -119.283504 338 5694ft 284kts
10-Jun-20 19:17 36.537454 -119.319853 330 4283ft 279kts
10-Jun-20 19:18 36.604348 -119.357902 338 4001ft 242kts
10-Jun-20 19:19 36.656396 -119.397728 283 4010ft 226kts
10-Jun-20 19:20 36.634111 -119.467231 252 3410ft 223kts
10-Jun-20 19:21 36.662840 -119.523795 321 3398ft 181kts
10-Jun-20 19:22 36.693957 -119.572931 304 2911ft 177kts
10-Jun-20 19:23 36.722082 -119.622001 305 1968ft 168kts
10-Jun-20 19:24 36.744951 -119.661913 304 1192ft 140kts
10-Jun-20 19:25 36.767384 -119.700982 304 449ft 134kts
10-Jun-20 19:26 36.779617 -119.722433 305 340ft 24kts
10-Jun-20 19:27 36.777309 -119.726091 184 340ft 11kts
10-Jun-20 19:28 36.774151 -119.721047 125 340ft 22kts
10-Jun-20 19:29 36.771679 -119.719368 131 340ft 4kts
10-Jun-20 19:30 36.771555 -119.719170 126 340ft 0kts
10-Jun-20 19:31 36.771555 -119.719170 126 340ft 0kts
10-Jun-20 19:32 36.771555 -119.719170 126 340ft 0kts
10-Jun-20 19:33 36.767277 -119.700793 304 453ft 134kts
10-Jun-20 19:34 36.771555 -119.719170 126 340ft 0kts
10-Jun-20 19:35 36.771554 -119.719170 126 340ft 0kts
10-Jun-20 19:36 36.771554 -119.719170 126 340ft 0kts
10-Jun-20 19:37 36.771554 -119.719170 126 340ft 0kts

Navigation Log

Ident Type
Flight plan parsing failed, navigation log unavailable